createdAt,value
2023-02-17T00:00:54.260Z,8.77
2023-02-17T00:03:21.003Z,8.23
2023-02-17T00:05:49.972Z,8.70
2023-02-17T00:08:17.483Z,7.90
2023-02-17T00:10:44.084Z,9.13
2023-02-17T00:13:10.710Z,8.33
2023-02-17T00:15:40.458Z,9.10
2023-02-17T00:18:07.099Z,10.27
2023-02-17T00:20:33.662Z,9.40
2023-02-17T00:23:00.209Z,11.23
2023-02-17T00:25:26.821Z,14.67
2023-02-17T00:27:53.368Z,14.50
2023-02-17T00:30:19.984Z,16.33
2023-02-17T00:32:46.613Z,16.90
2023-02-17T00:35:13.361Z,18.13
2023-02-17T00:37:40.454Z,17.50
2023-02-17T00:40:07.615Z,24.07
2023-02-17T00:42:34.212Z,23.63
2023-02-17T00:45:00.808Z,25.30
2023-02-17T00:47:27.411Z,22.97
2023-02-17T00:49:59.424Z,21.84
2023-02-17T00:52:25.988Z,22.23
2023-02-17T00:54:52.575Z,21.83
2023-02-17T00:57:19.179Z,22.17
2023-02-17T00:59:45.780Z,21.53
2023-02-17T01:02:12.390Z,21.70
2023-02-17T01:04:39.073Z,21.07
2023-02-17T01:07:05.680Z,21.87
2023-02-17T01:09:32.292Z,22.23
2023-02-17T01:11:58.914Z,22.77
2023-02-17T01:14:25.589Z,22.43
2023-02-17T01:16:52.252Z,21.73
2023-02-17T01:19:19.624Z,17.67
2023-02-17T01:21:46.200Z,24.23
2023-02-17T01:24:13.152Z,22.33
2023-02-17T01:26:40.323Z,18.63
2023-02-17T01:29:09.557Z,21.27
2023-02-17T01:31:36.418Z,19.93
2023-02-17T01:34:04.427Z,20.47
2023-02-17T01:36:32.103Z,21.50
2023-02-17T01:38:58.806Z,18.90
2023-02-17T01:41:27.307Z,21.80
2023-02-17T01:44:10.850Z,20.27
2023-02-17T01:46:38.835Z,21.10
2023-02-17T01:49:19.857Z,20.50
2023-02-17T01:51:49.574Z,19.77
2023-02-17T01:54:20.954Z,18.13
2023-02-17T01:56:48.605Z,15.97
2023-02-17T01:59:21.038Z,16.07
2023-02-17T02:01:50.165Z,15.87
2023-02-17T02:04:19.446Z,16.77
2023-02-17T02:06:46.392Z,15.13
2023-02-17T02:09:18.350Z,14.30
2023-02-17T02:11:45.032Z,13.63
2023-02-17T02:14:11.794Z,13.67
2023-02-17T02:16:51.029Z,13.53
2023-02-17T02:19:42.228Z,13.73
2023-02-17T02:22:42.714Z,13.87
2023-02-17T02:25:15.318Z,14.80
2023-02-17T02:27:41.843Z,13.57
2023-02-17T02:30:14.479Z,14.13
2023-02-17T02:32:50.096Z,11.97
2023-02-17T02:35:19.270Z,12.47
2023-02-17T02:37:58.007Z,11.47
2023-02-17T02:40:27.777Z,11.60
2023-02-17T02:42:54.637Z,12.13
2023-02-17T02:45:21.990Z,12.53
2023-02-17T02:47:55.359Z,12.57
2023-02-17T02:50:26.184Z,12.27
2023-02-17T02:53:07.406Z,13.53
2023-02-17T02:55:40.037Z,13.83
2023-02-17T02:58:16.327Z,13.53
2023-02-17T03:00:57.372Z,13.70
2023-02-17T03:03:42.587Z,13.47
2023-02-17T03:06:21.377Z,13.33
2023-02-17T03:08:55.029Z,14.03
2023-02-17T03:11:32.481Z,12.57
2023-02-17T03:14:02.528Z,13.20
2023-02-17T03:16:29.496Z,13.27
2023-02-17T03:18:56.084Z,13.73
2023-02-17T03:21:23.786Z,15.53
2023-02-17T03:23:50.664Z,17.30
2023-02-17T03:26:17.300Z,16.37
2023-02-17T03:28:43.898Z,15.93
2023-02-17T03:31:10.588Z,14.67
2023-02-17T03:33:37.243Z,13.93
2023-02-17T03:36:04.320Z,13.20
2023-02-17T03:38:31.088Z,12.43
2023-02-17T03:40:57.718Z,13.40
2023-02-17T03:43:24.338Z,12.30
2023-02-17T03:45:51.177Z,11.33
2023-02-17T03:48:17.787Z,11.73
2023-02-17T03:50:44.380Z,12.40
2023-02-17T03:53:11.819Z,11.57
2023-02-17T03:55:38.424Z,10.73
2023-02-17T03:58:05.076Z,11.00
2023-02-17T04:00:31.716Z,11.53
2023-02-17T04:02:58.384Z,11.40
2023-02-17T04:05:25.004Z,12.93
2023-02-17T04:07:52.480Z,12.00
2023-02-17T04:10:19.201Z,11.67
2023-02-17T04:12:45.755Z,12.00
2023-02-17T04:15:12.509Z,11.07
2023-02-17T04:17:39.181Z,11.63
2023-02-17T04:20:06.762Z,11.73
2023-02-17T04:22:33.325Z,11.00
2023-02-17T04:24:59.941Z,12.33
2023-02-17T04:27:26.536Z,14.27
2023-02-17T04:29:53.221Z,18.90
2023-02-17T04:32:19.840Z,18.27
2023-02-17T04:34:46.415Z,19.63
2023-02-17T04:37:13.060Z,19.17
2023-02-17T04:39:39.646Z,18.23
2023-02-17T04:42:06.186Z,19.47
2023-02-17T04:44:32.763Z,18.73
2023-02-17T04:46:59.348Z,17.80
2023-02-17T04:49:25.907Z,17.47
2023-02-17T04:51:52.546Z,17.63
2023-02-17T04:54:19.201Z,21.13
2023-02-17T04:56:45.796Z,31.50
2023-02-17T04:59:12.395Z,40.67
2023-02-17T05:01:39.034Z,25.50
2023-02-17T05:04:05.865Z,31.00
2023-02-17T05:06:32.556Z,37.00
2023-02-17T05:08:59.260Z,77.47
2023-02-17T05:11:25.980Z,53.20
2023-02-17T05:13:52.597Z,28.20
2023-02-17T05:16:19.311Z,54.60
2023-02-17T05:18:45.880Z,105.50
2023-02-17T05:21:12.493Z,92.47
2023-02-17T05:23:41.395Z,67.23
2023-02-17T05:26:11.220Z,22.63
2023-02-17T05:28:37.925Z,38.50
2023-02-17T05:31:05.055Z,46.60
2023-02-17T05:33:31.644Z,44.13
2023-02-17T05:36:03.335Z,27.07
2023-02-17T05:38:30.297Z,32.93
2023-02-17T05:40:56.970Z,29.77
2023-02-17T05:43:23.678Z,61.67
2023-02-17T05:45:50.367Z,40.70
2023-02-17T05:48:17.354Z,35.70
2023-02-17T05:50:44.040Z,27.73
2023-02-17T05:53:10.638Z,24.20
2023-02-17T05:55:37.290Z,25.23
2023-02-17T05:58:03.910Z,31.30
2023-02-17T06:00:30.607Z,24.43
2023-02-17T06:02:57.244Z,24.37
2023-02-17T06:05:23.972Z,26.30
2023-02-17T06:07:50.583Z,28.07
2023-02-17T06:10:17.443Z,31.47
2023-02-17T06:12:44.089Z,33.03
2023-02-17T06:15:10.811Z,21.90
2023-02-17T06:17:37.463Z,28.73
2023-02-17T06:20:04.757Z,20.37
2023-02-17T06:22:31.367Z,34.17
2023-02-17T06:24:57.941Z,28.90
2023-02-17T06:27:24.952Z,25.33
2023-02-17T06:29:51.675Z,24.80
2023-02-17T06:32:18.359Z,28.70
2023-02-17T06:34:44.985Z,35.73
2023-02-17T06:37:11.635Z,32.67
2023-02-17T06:39:38.300Z,38.57
2023-02-17T06:42:05.049Z,36.57
2023-02-17T06:44:31.725Z,38.03
2023-02-17T06:46:59.408Z,38.83
2023-02-17T06:49:26.109Z,42.60
2023-02-17T06:51:52.704Z,50.47
2023-02-17T06:54:19.363Z,47.33
2023-02-17T06:56:45.998Z,43.20
2023-02-17T06:59:12.628Z,32.00
2023-02-17T07:01:39.333Z,28.70
2023-02-17T07:04:06.123Z,22.47
2023-02-17T07:06:32.926Z,17.27
2023-02-17T07:08:59.528Z,17.40
2023-02-17T07:11:27.323Z,18.43
2023-02-17T07:13:53.947Z,15.80
2023-02-17T07:16:20.553Z,18.13
2023-02-17T07:18:47.483Z,13.00
2023-02-17T07:21:14.163Z,14.67
2023-02-17T07:23:40.813Z,14.53
2023-02-17T07:26:10.086Z,13.30
2023-02-17T07:28:37.966Z,20.70
2023-02-17T07:31:08.534Z,26.13
2023-02-17T07:33:35.821Z,19.90
2023-02-17T07:36:10.327Z,17.13
2023-02-17T07:38:37.533Z,11.63
2023-02-17T07:41:11.085Z,13.50
2023-02-17T07:43:37.729Z,18.00
2023-02-17T07:46:05.646Z,19.47
2023-02-17T07:48:32.613Z,13.07
2023-02-17T07:51:08.998Z,10.07
2023-02-17T07:53:36.166Z,12.97
2023-02-17T07:56:04.698Z,11.63
2023-02-17T07:58:32.925Z,12.40
2023-02-17T08:01:07.527Z,10.20
2023-02-17T08:03:34.395Z,10.60
2023-02-17T08:06:01.396Z,8.13
2023-02-17T08:08:46.495Z,10.17
2023-02-17T08:11:33.695Z,11.30
2023-02-17T08:14:00.426Z,11.07
2023-02-17T08:16:27.109Z,12.83
2023-02-17T08:18:55.589Z,11.40
2023-02-17T08:21:23.445Z,12.73
2023-02-17T08:23:50.108Z,11.53
2023-02-17T08:26:17.801Z,13.17
2023-02-17T08:28:44.998Z,10.67
2023-02-17T08:31:25.367Z,13.57
2023-02-17T08:33:52.655Z,12.17
2023-02-17T08:36:22.288Z,10.87
2023-02-17T08:38:51.282Z,12.37
2023-02-17T08:41:24.600Z,10.40
2023-02-17T08:43:51.523Z,10.67
2023-02-17T08:46:19.332Z,10.57
2023-02-17T08:48:46.157Z,11.07
2023-02-17T08:51:14.419Z,8.10
2023-02-17T08:53:41.053Z,9.10
2023-02-17T08:56:08.430Z,8.57
2023-02-17T08:58:36.210Z,8.23
2023-02-17T09:01:03.515Z,6.93
2023-02-17T09:03:30.596Z,8.07
2023-02-17T09:05:57.952Z,7.33
2023-02-17T09:08:24.605Z,7.67
2023-02-17T09:10:51.599Z,5.23
2023-02-17T09:13:19.076Z,6.93
2023-02-17T09:15:45.965Z,5.90
2023-02-17T09:18:12.763Z,6.10
2023-02-17T09:20:39.732Z,5.20
2023-02-17T09:23:07.017Z,5.70
2023-02-17T09:25:33.751Z,5.53
2023-02-17T09:28:00.451Z,5.07
2023-02-17T09:30:27.140Z,5.30
2023-02-17T09:32:53.830Z,6.13
2023-02-17T09:35:20.507Z,6.23
2023-02-17T09:37:47.194Z,6.50
2023-02-17T09:40:44.282Z,6.50
2023-02-17T09:43:15.032Z,6.83
2023-02-17T09:45:43.062Z,6.30
2023-02-17T09:48:12.232Z,6.83
2023-02-17T09:50:44.082Z,5.27
2023-02-17T09:53:51.939Z,6.53
2023-02-17T09:56:22.892Z,5.67
2023-02-17T09:59:23.155Z,5.80
2023-02-17T10:01:50.568Z,5.10
2023-02-17T10:04:19.454Z,5.90
2023-02-17T10:06:47.624Z,4.80
2023-02-17T10:09:33.625Z,4.93
2023-02-17T10:12:09.929Z,5.10
2023-02-17T10:14:42.220Z,5.40
2023-02-17T10:17:20.925Z,4.43
2023-02-17T10:20:24.137Z,5.20
2023-02-17T10:23:07.215Z,4.90
2023-02-17T10:26:09.225Z,5.13
2023-02-17T10:28:53.170Z,6.33
2023-02-17T10:31:41.718Z,5.27
2023-02-17T10:34:33.191Z,5.03
2023-02-17T10:37:24.602Z,5.30
2023-02-17T10:39:53.441Z,4.63
2023-02-17T10:42:28.183Z,4.53
2023-02-17T10:45:00.844Z,5.40
2023-02-17T10:47:27.676Z,4.80
2023-02-17T10:49:56.717Z,3.67
2023-02-17T10:52:28.052Z,4.17
2023-02-17T10:54:59.955Z,4.37
2023-02-17T10:57:32.772Z,4.17
2023-02-17T10:59:59.455Z,4.50
2023-02-17T11:02:46.378Z,4.40
2023-02-17T11:05:31.648Z,4.77
2023-02-17T11:08:01.681Z,5.00
2023-02-17T11:10:40.647Z,4.60
2023-02-17T11:13:40.868Z,5.40
2023-02-17T11:16:07.791Z,4.30
2023-02-17T11:18:39.333Z,4.47
2023-02-17T11:21:09.499Z,5.50
2023-02-17T11:23:40.386Z,6.17
2023-02-17T11:26:16.756Z,5.27
2023-02-17T11:28:43.348Z,4.80
2023-02-17T11:31:27.680Z,5.20
2023-02-17T11:33:56.846Z,7.80
2023-02-17T11:36:28.884Z,4.57
2023-02-17T11:38:55.942Z,5.10
2023-02-17T11:41:23.149Z,5.53
2023-02-17T11:43:56.143Z,5.13
2023-02-17T11:46:37.048Z,5.27
2023-02-17T11:49:06.863Z,5.13
2023-02-17T11:51:40.526Z,5.30
2023-02-17T11:54:21.655Z,5.00
2023-02-17T11:56:58.376Z,5.47
2023-02-17T12:00:05.749Z,6.40
2023-02-17T12:03:03.872Z,6.30
2023-02-17T12:05:52.507Z,5.13
2023-02-17T12:08:27.679Z,6.20
2023-02-17T12:11:33.532Z,6.73
2023-02-17T12:14:31.185Z,5.33
2023-02-17T12:17:19.618Z,8.03
2023-02-17T12:19:52.235Z,6.63
2023-02-17T12:22:30.086Z,6.40
2023-02-17T12:25:24.648Z,9.20
2023-02-17T12:28:19.169Z,7.93
2023-02-17T12:31:03.150Z,6.67
2023-02-17T12:33:43.475Z,6.33
2023-02-17T12:36:15.140Z,8.10
2023-02-17T12:38:46.487Z,7.13
2023-02-17T12:41:34.652Z,7.53
2023-02-17T12:44:14.772Z,8.20
2023-02-17T12:46:44.937Z,7.10
2023-02-17T12:49:22.184Z,7.00
2023-02-17T12:51:59.429Z,7.53
2023-02-17T12:54:26.069Z,7.03
2023-02-17T12:57:14.628Z,6.17
2023-02-17T12:59:50.468Z,6.27
2023-02-17T13:02:19.567Z,7.47
2023-02-17T13:04:50.067Z,6.07
2023-02-17T13:07:21.308Z,6.37
2023-02-17T13:09:49.946Z,6.37
2023-02-17T13:12:22.535Z,6.73
2023-02-17T13:14:57.135Z,7.20
2023-02-17T13:17:29.884Z,6.10
2023-02-17T13:20:05.841Z,5.37
2023-02-17T13:22:32.460Z,5.43
2023-02-17T13:24:59.215Z,6.17
2023-02-17T13:27:28.764Z,5.77
2023-02-17T13:30:29.122Z,5.27
2023-02-17T13:33:07.844Z,6.10
2023-02-17T13:35:36.256Z,5.33
2023-02-17T13:38:03.748Z,5.70
2023-02-17T13:40:30.378Z,5.80
2023-02-17T13:42:58.059Z,5.97
2023-02-17T13:45:34.494Z,5.88
2023-02-17T13:48:21.156Z,6.70
2023-02-17T13:50:51.179Z,4.49
2023-02-17T13:53:27.229Z,5.17
2023-02-17T13:55:56.769Z,6.13
2023-02-17T13:58:30.137Z,4.70
2023-02-17T14:00:58.960Z,5.57
2023-02-17T14:03:33.281Z,6.33
2023-02-17T14:06:01.776Z,7.37
2023-02-17T14:08:34.498Z,9.33
2023-02-17T14:11:21.206Z,6.23
2023-02-17T14:13:49.261Z,5.37
2023-02-17T14:16:38.535Z,5.27
2023-02-17T14:19:11.138Z,5.40
2023-02-17T14:21:43.591Z,5.10
2023-02-17T14:24:36.953Z,6.47
2023-02-17T14:27:08.227Z,6.00
2023-02-17T14:29:42.222Z,8.10
2023-02-17T14:32:26.447Z,7.67
2023-02-17T14:34:53.186Z,9.23
2023-02-17T14:37:26.097Z,9.13
2023-02-17T14:39:52.700Z,7.53
2023-02-17T14:42:19.380Z,6.63
2023-02-17T14:44:45.978Z,7.23
2023-02-17T14:47:12.536Z,7.33
2023-02-17T14:49:39.184Z,8.93
2023-02-17T14:52:19.871Z,8.20
2023-02-17T14:54:46.631Z,7.93
2023-02-17T14:57:14.833Z,8.10
2023-02-17T14:59:41.925Z,6.63
2023-02-17T15:02:20.701Z,6.00
2023-02-17T15:04:47.402Z,6.43
2023-02-17T15:07:18.576Z,6.37
2023-02-17T15:09:46.487Z,5.93
2023-02-17T15:12:18.209Z,6.13
2023-02-17T15:14:46.919Z,5.83
2023-02-17T15:17:14.562Z,8.37
2023-02-17T15:19:43.992Z,8.13
2023-02-17T15:22:14.436Z,8.47
2023-02-17T15:24:41.360Z,6.00
2023-02-17T15:27:13.366Z,5.97
2023-02-17T15:29:40.042Z,7.13
2023-02-17T15:32:13.007Z,4.53
2023-02-17T15:34:39.690Z,7.07
2023-02-17T15:37:06.317Z,5.60
2023-02-17T15:39:32.878Z,7.40
2023-02-17T15:42:01.300Z,9.23
2023-02-17T15:44:34.407Z,10.93
2023-02-17T15:47:01.057Z,7.27
2023-02-17T15:49:36.271Z,8.21
2023-02-17T15:52:02.853Z,9.17
2023-02-17T15:54:29.491Z,9.13
2023-02-17T15:56:56.094Z,11.87
2023-02-17T15:59:24.761Z,16.60
2023-02-17T16:01:51.566Z,25.97
2023-02-17T16:04:18.245Z,27.57
2023-02-17T16:06:44.989Z,24.47
2023-02-17T16:09:11.763Z,26.37
2023-02-17T16:11:47.284Z,27.30
2023-02-17T16:14:23.268Z,13.63
2023-02-17T16:16:49.953Z,9.73
2023-02-17T16:19:16.587Z,25.93
2023-02-17T16:21:43.194Z,10.83
2023-02-17T16:24:09.817Z,16.33
2023-02-17T16:26:37.018Z,44.60
2023-02-17T16:29:12.612Z,51.77
2023-02-17T16:31:39.307Z,38.60
2023-02-17T16:34:05.971Z,42.20
2023-02-17T16:36:34.499Z,51.87
2023-02-17T16:39:03.367Z,46.23
2023-02-17T16:41:29.987Z,49.70
2023-02-17T16:43:56.796Z,27.10
2023-02-17T16:46:29.726Z,90.37
2023-02-17T16:48:57.438Z,87.33
2023-02-17T16:51:24.373Z,18.40
2023-02-17T16:53:51.122Z,24.57
2023-02-17T16:56:48.013Z,32.77
2023-02-17T16:59:16.810Z,49.97
2023-02-17T17:01:43.865Z,35.60
2023-02-17T17:04:10.585Z,16.73
2023-02-17T17:06:39.372Z,14.73
2023-02-17T17:09:07.263Z,27.67
2023-02-17T17:11:33.906Z,9.07
2023-02-17T17:14:00.486Z,7.47
2023-02-17T17:16:31.757Z,11.33
2023-02-17T17:18:59.309Z,7.60
2023-02-17T17:21:25.896Z,28.77
2023-02-17T17:23:52.905Z,15.43
2023-02-17T17:26:19.751Z,10.63
2023-02-17T17:28:49.112Z,14.03
2023-02-17T17:31:16.831Z,9.37
2023-02-17T17:33:43.633Z,18.40
2023-02-17T17:36:15.370Z,29.10
2023-02-17T17:38:42.040Z,15.80
2023-02-17T17:41:13.038Z,14.17
2023-02-17T17:43:40.429Z,13.63
2023-02-17T17:46:13.504Z,11.30
2023-02-17T17:48:40.427Z,8.83
2023-02-17T17:51:07.408Z,10.97
2023-02-17T17:53:34.129Z,11.33
2023-02-17T17:56:00.765Z,12.13
2023-02-17T17:58:27.366Z,11.80
2023-02-17T18:00:54.686Z,11.30
2023-02-17T18:03:21.300Z,8.60
2023-02-17T18:05:47.949Z,10.63
2023-02-17T18:08:15.009Z,9.87
2023-02-17T18:10:42.451Z,9.03
2023-02-17T18:13:10.978Z,9.67
2023-02-17T18:15:37.883Z,10.27
2023-02-17T18:18:04.549Z,9.43
2023-02-17T18:20:33.277Z,11.67
2023-02-17T18:22:59.911Z,11.00
2023-02-17T18:25:26.504Z,10.10
2023-02-17T18:27:53.098Z,10.50
2023-02-17T18:30:21.444Z,8.47
2023-02-17T18:32:48.257Z,9.90
2023-02-17T18:35:15.231Z,8.47
2023-02-17T18:37:42.245Z,8.20
2023-02-17T18:40:12.657Z,7.40
2023-02-17T18:42:40.594Z,7.33
2023-02-17T18:45:08.010Z,7.23
2023-02-17T18:47:34.667Z,7.47
2023-02-17T18:50:01.329Z,7.70
2023-02-17T18:52:28.015Z,7.40
2023-02-17T18:54:54.819Z,8.70
2023-02-17T18:57:21.482Z,8.00
2023-02-17T18:59:49.346Z,8.07
2023-02-17T19:02:16.135Z,10.07
2023-02-17T19:04:42.842Z,8.90
2023-02-17T19:07:09.527Z,8.87
2023-02-17T19:09:39.374Z,8.17
2023-02-17T19:12:06.376Z,7.60
2023-02-17T19:14:33.490Z,8.20
2023-02-17T19:17:00.124Z,8.07
2023-02-17T19:19:30.328Z,8.70
2023-02-17T19:21:57.448Z,8.97
2023-02-17T19:24:23.987Z,9.43
2023-02-17T19:26:50.591Z,7.03
2023-02-17T19:29:17.210Z,8.63
2023-02-17T19:31:43.919Z,8.60
2023-02-17T19:34:11.048Z,8.60
2023-02-17T19:36:37.606Z,7.70
2023-02-17T19:39:04.556Z,7.60
2023-02-17T19:41:31.140Z,7.90
2023-02-17T19:43:57.743Z,8.37
2023-02-17T19:46:25.784Z,8.60
2023-02-17T19:48:59.252Z,8.44
2023-02-17T19:51:25.963Z,8.53
2023-02-17T19:53:52.541Z,8.63
2023-02-17T19:56:24.278Z,8.07
2023-02-17T19:58:51.476Z,8.00
2023-02-17T20:01:20.794Z,8.73
2023-02-17T20:03:47.705Z,7.53
2023-02-17T20:06:17.356Z,8.10
2023-02-17T20:08:47.791Z,8.10
2023-02-17T20:11:15.085Z,9.10
2023-02-17T20:13:46.086Z,7.67
2023-02-17T20:16:14.573Z,8.97
2023-02-17T20:18:44.744Z,8.70
2023-02-17T20:21:13.531Z,7.73
2023-02-17T20:23:40.113Z,8.93
2023-02-17T20:26:09.368Z,9.30
2023-02-17T20:28:36.354Z,10.13
2023-02-17T20:31:05.783Z,10.63
2023-02-17T20:33:32.937Z,10.33
2023-02-17T20:35:59.524Z,9.40
2023-02-17T20:38:26.136Z,9.37
2023-02-17T20:40:52.748Z,29.50
2023-02-17T20:43:20.687Z,14.70
2023-02-17T20:45:48.922Z,11.17
2023-02-17T20:48:15.600Z,7.63
2023-02-17T20:50:42.641Z,10.30
2023-02-17T20:53:09.249Z,9.63
2023-02-17T20:55:35.977Z,13.50
2023-02-17T20:58:02.756Z,9.20
2023-02-17T21:00:30.178Z,9.67
2023-02-17T21:02:56.850Z,8.50
2023-02-17T21:05:24.493Z,7.57
2023-02-17T21:07:51.165Z,7.73
2023-02-17T21:10:21.633Z,8.07
2023-02-17T21:12:48.798Z,12.47
2023-02-17T21:15:16.219Z,10.90
2023-02-17T21:17:42.864Z,10.87
2023-02-17T21:20:12.138Z,9.03
2023-02-17T21:22:38.917Z,8.90
2023-02-17T21:25:05.790Z,11.77
2023-02-17T21:27:32.611Z,8.57
2023-02-17T21:29:59.446Z,8.27
2023-02-17T21:32:26.657Z,12.03
2023-02-17T21:34:53.351Z,8.63
2023-02-17T21:37:19.996Z,10.43
2023-02-17T21:39:46.652Z,11.00
2023-02-17T21:42:13.292Z,8.93
2023-02-17T21:44:51.826Z,9.37
2023-02-17T21:47:19.910Z,14.13
2023-02-17T21:49:47.007Z,8.20
2023-02-17T21:52:14.683Z,11.93
2023-02-17T21:54:41.356Z,9.10
2023-02-17T21:57:08.039Z,9.60
2023-02-17T21:59:34.667Z,11.23
2023-02-17T22:02:01.248Z,16.40
2023-02-17T22:04:28.248Z,8.43
2023-02-17T22:06:54.877Z,8.97
2023-02-17T22:09:21.574Z,8.40
2023-02-17T22:11:49.521Z,7.60
2023-02-17T22:14:20.391Z,12.20
2023-02-17T22:16:47.818Z,12.90
2023-02-17T22:19:17.314Z,7.40
2023-02-17T22:21:44.408Z,11.60
2023-02-17T22:24:11.469Z,6.70
2023-02-17T22:26:38.463Z,6.93
2023-02-17T22:29:05.215Z,8.03
2023-02-17T22:31:32.682Z,8.23
2023-02-17T22:34:02.307Z,9.57
2023-02-17T22:36:32.016Z,8.90
2023-02-17T22:38:59.057Z,6.90
2023-02-17T22:41:26.078Z,5.80
2023-02-17T22:43:53.418Z,6.60
2023-02-17T22:46:22.467Z,6.30
2023-02-17T22:48:50.825Z,6.60
2023-02-17T22:51:20.745Z,6.53
2023-02-17T22:53:47.334Z,6.03
2023-02-17T22:56:13.998Z,6.43
2023-02-17T22:58:40.717Z,5.90
2023-02-17T23:01:13.015Z,7.00
2023-02-17T23:03:39.770Z,5.83
2023-02-17T23:06:15.224Z,7.67
2023-02-17T23:08:43.287Z,7.28
2023-02-17T23:11:12.034Z,7.53
2023-02-17T23:13:45.861Z,5.97
2023-02-17T23:16:21.578Z,7.57
2023-02-17T23:18:48.380Z,6.33
2023-02-17T23:21:14.944Z,6.00
2023-02-17T23:23:41.589Z,5.70
2023-02-17T23:26:08.485Z,7.07
2023-02-17T23:28:35.259Z,6.80
2023-02-17T23:31:01.947Z,6.20
2023-02-17T23:33:28.648Z,6.37
2023-02-17T23:35:55.226Z,6.10
2023-02-17T23:38:22.003Z,6.00
2023-02-17T23:40:52.975Z,5.60
2023-02-17T23:43:20.010Z,5.70
2023-02-17T23:45:46.669Z,5.27
2023-02-17T23:48:13.356Z,5.40
2023-02-17T23:50:40.095Z,5.57
2023-02-17T23:53:07.348Z,7.30
2023-02-17T23:55:34.319Z,6.03
2023-02-17T23:58:01.348Z,5.33
